sensor_id;sensor_type;location;lat;lon;timestamp;P1;durP1;ratioP1;P2;durP2;ratioP2
19291;SDS011;9779;51.756;7.450;2023-05-07T00:01:19;4.83;;;4.53;;
19291;SDS011;9779;51.756;7.450;2023-05-07T00:03:45;4.97;;;4.67;;
19291;SDS011;9779;51.756;7.450;2023-05-07T00:06:10;4.40;;;4.10;;
19291;SDS011;9779;51.756;7.450;2023-05-07T00:08:37;4.40;;;4.10;;
19291;SDS011;9779;51.756;7.450;2023-05-07T00:11:03;5.03;;;3.97;;
19291;SDS011;9779;51.756;7.450;2023-05-07T00:13:28;8.03;;;4.43;;
19291;SDS011;9779;51.756;7.450;2023-05-07T00:16:00;5.53;;;4.17;;
19291;SDS011;9779;51.756;7.450;2023-05-07T00:18:26;5.00;;;4.70;;
19291;SDS011;9779;51.756;7.450;2023-05-07T00:20:52;4.77;;;4.50;;
19291;SDS011;9779;51.756;7.450;2023-05-07T00:23:17;5.47;;;4.77;;
19291;SDS011;9779;51.756;7.450;2023-05-07T00:25:43;5.27;;;4.87;;
19291;SDS011;9779;51.756;7.450;2023-05-07T00:28:08;8.40;;;5.37;;
19291;SDS011;9779;51.756;7.450;2023-05-07T00:30:34;5.90;;;4.57;;
19291;SDS011;9779;51.756;7.450;2023-05-07T00:32:59;5.10;;;4.80;;
19291;SDS011;9779;51.756;7.450;2023-05-07T00:35:25;5.73;;;5.23;;
19291;SDS011;9779;51.756;7.450;2023-05-07T00:37:51;5.57;;;5.07;;
19291;SDS011;9779;51.756;7.450;2023-05-07T00:40:16;5.50;;;5.20;;
19291;SDS011;9779;51.756;7.450;2023-05-07T00:42:42;7.33;;;4.83;;
19291;SDS011;9779;51.756;7.450;2023-05-07T00:45:11;5.77;;;5.37;;
19291;SDS011;9779;51.756;7.450;2023-05-07T00:47:38;5.17;;;4.77;;
19291;SDS011;9779;51.756;7.450;2023-05-07T00:50:05;7.37;;;5.03;;
19291;SDS011;9779;51.756;7.450;2023-05-07T00:52:31;5.00;;;4.70;;
19291;SDS011;9779;51.756;7.450;2023-05-07T00:54:56;15.90;;;5.37;;
19291;SDS011;9779;51.756;7.450;2023-05-07T00:57:22;5.23;;;4.70;;
19291;SDS011;9779;51.756;7.450;2023-05-07T00:59:50;5.37;;;5.07;;
19291;SDS011;9779;51.756;7.450;2023-05-07T01:02:16;5.90;;;5.37;;
19291;SDS011;9779;51.756;7.450;2023-05-07T01:04:42;5.80;;;5.40;;
19291;SDS011;9779;51.756;7.450;2023-05-07T01:07:07;5.80;;;5.40;;
19291;SDS011;9779;51.756;7.450;2023-05-07T01:09:34;5.47;;;4.97;;
19291;SDS011;9779;51.756;7.450;2023-05-07T01:12:00;5.00;;;4.70;;
19291;SDS011;9779;51.756;7.450;2023-05-07T01:14:26;7.03;;;4.73;;
19291;SDS011;9779;51.756;7.450;2023-05-07T01:16:52;5.60;;;5.10;;
19291;SDS011;9779;51.756;7.450;2023-05-07T01:19:18;5.30;;;5.00;;
19291;SDS011;9779;51.756;7.450;2023-05-07T01:21:45;5.90;;;5.57;;
19291;SDS011;9779;51.756;7.450;2023-05-07T01:24:12;5.07;;;4.67;;
19291;SDS011;9779;51.756;7.450;2023-05-07T01:26:39;6.27;;;4.77;;
19291;SDS011;9779;51.756;7.450;2023-05-07T01:29:05;7.27;;;5.03;;
19291;SDS011;9779;51.756;7.450;2023-05-07T01:31:30;4.73;;;4.53;;
19291;SDS011;9779;51.756;7.450;2023-05-07T01:33:58;5.27;;;4.87;;
19291;SDS011;9779;51.756;7.450;2023-05-07T01:36:26;9.33;;;5.00;;
19291;SDS011;9779;51.756;7.450;2023-05-07T01:38:53;6.07;;;5.47;;
19291;SDS011;9779;51.756;7.450;2023-05-07T01:41:19;11.23;;;5.53;;
19291;SDS011;9779;51.756;7.450;2023-05-07T01:43:46;5.37;;;4.97;;
19291;SDS011;9779;51.756;7.450;2023-05-07T01:46:13;5.13;;;4.40;;
19291;SDS011;9779;51.756;7.450;2023-05-07T01:48:40;5.70;;;5.40;;
19291;SDS011;9779;51.756;7.450;2023-05-07T01:51:06;5.17;;;4.67;;
19291;SDS011;9779;51.756;7.450;2023-05-07T01:53:36;6.07;;;4.37;;
19291;SDS011;9779;51.756;7.450;2023-05-07T01:56:03;4.97;;;4.67;;
19291;SDS011;9779;51.756;7.450;2023-05-07T01:58:29;5.17;;;4.83;;
19291;SDS011;9779;51.756;7.450;2023-05-07T02:00:54;5.27;;;4.97;;
19291;SDS011;9779;51.756;7.450;2023-05-07T02:03:20;4.87;;;4.57;;
19291;SDS011;9779;51.756;7.450;2023-05-07T02:05:45;5.23;;;4.83;;
19291;SDS011;9779;51.756;7.450;2023-05-07T02:08:11;5.20;;;4.80;;
19291;SDS011;9779;51.756;7.450;2023-05-07T02:10:36;5.37;;;5.00;;
19291;SDS011;9779;51.756;7.450;2023-05-07T02:13:02;5.07;;;4.67;;
19291;SDS011;9779;51.756;7.450;2023-05-07T02:15:27;6.30;;;4.90;;
19291;SDS011;9779;51.756;7.450;2023-05-07T02:20:29;5.87;;;4.20;;
19291;SDS011;9779;51.756;7.450;2023-05-07T02:22:54;4.97;;;4.57;;
19291;SDS011;9779;51.756;7.450;2023-05-07T02:25:20;4.33;;;4.00;;
19291;SDS011;9779;51.756;7.450;2023-05-07T02:27:45;4.67;;;4.30;;
19291;SDS011;9779;51.756;7.450;2023-05-07T02:30:11;4.83;;;4.53;;
19291;SDS011;9779;51.756;7.450;2023-05-07T02:32:37;5.57;;;4.53;;
19291;SDS011;9779;51.756;7.450;2023-05-07T02:35:03;4.50;;;4.30;;
19291;SDS011;9779;51.756;7.450;2023-05-07T02:37:28;5.97;;;5.40;;
19291;SDS011;9779;51.756;7.450;2023-05-07T02:39:54;5.00;;;4.00;;
19291;SDS011;9779;51.756;7.450;2023-05-07T02:42:20;4.67;;;4.37;;
19291;SDS011;9779;51.756;7.450;2023-05-07T02:44:45;4.97;;;4.57;;
19291;SDS011;9779;51.756;7.450;2023-05-07T02:47:11;4.47;;;4.10;;
19291;SDS011;9779;51.756;7.450;2023-05-07T02:49:38;4.40;;;4.20;;
19291;SDS011;9779;51.756;7.450;2023-05-07T02:52:04;4.13;;;3.80;;
19291;SDS011;9779;51.756;7.450;2023-05-07T02:54:29;4.87;;;4.57;;
19291;SDS011;9779;51.756;7.450;2023-05-07T02:56:55;5.00;;;4.70;;
19291;SDS011;9779;51.756;7.450;2023-05-07T02:59:21;5.13;;;4.60;;
19291;SDS011;9779;51.756;7.450;2023-05-07T03:01:46;4.67;;;4.37;;
19291;SDS011;9779;51.756;7.450;2023-05-07T03:04:13;4.80;;;4.50;;
19291;SDS011;9779;51.756;7.450;2023-05-07T03:06:38;4.70;;;4.33;;
19291;SDS011;9779;51.756;7.450;2023-05-07T03:09:04;4.73;;;4.33;;
19291;SDS011;9779;51.756;7.450;2023-05-07T03:11:29;4.20;;;3.97;;
19291;SDS011;9779;51.756;7.450;2023-05-07T03:13:55;5.00;;;4.60;;
19291;SDS011;9779;51.756;7.450;2023-05-07T03:16:21;9.77;;;5.37;;
19291;SDS011;9779;51.756;7.450;2023-05-07T03:18:46;4.53;;;4.23;;
19291;SDS011;9779;51.756;7.450;2023-05-07T03:21:12;6.63;;;4.70;;
19291;SDS011;9779;51.756;7.450;2023-05-07T03:23:37;5.03;;;4.00;;
19291;SDS011;9779;51.756;7.450;2023-05-07T03:26:03;6.27;;;5.03;;
19291;SDS011;9779;51.756;7.450;2023-05-07T03:28:29;4.83;;;4.53;;
19291;SDS011;9779;51.756;7.450;2023-05-07T03:30:54;4.80;;;4.50;;
19291;SDS011;9779;51.756;7.450;2023-05-07T03:33:20;4.93;;;4.57;;
19291;SDS011;9779;51.756;7.450;2023-05-07T03:35:45;3.87;;;3.67;;
19291;SDS011;9779;51.756;7.450;2023-05-07T03:38:11;5.13;;;4.83;;
19291;SDS011;9779;51.756;7.450;2023-05-07T03:40:36;4.83;;;4.53;;
19291;SDS011;9779;51.756;7.450;2023-05-07T03:43:02;4.97;;;4.67;;
19291;SDS011;9779;51.756;7.450;2023-05-07T03:45:27;5.13;;;4.73;;
19291;SDS011;9779;51.756;7.450;2023-05-07T03:47:53;5.57;;;5.17;;
19291;SDS011;9779;51.756;7.450;2023-05-07T03:50:19;5.10;;;4.70;;
19291;SDS011;9779;51.756;7.450;2023-05-07T03:52:44;5.47;;;5.07;;
19291;SDS011;9779;51.756;7.450;2023-05-07T03:55:10;8.37;;;5.30;;
19291;SDS011;9779;51.756;7.450;2023-05-07T03:57:36;5.70;;;5.40;;
19291;SDS011;9779;51.756;7.450;2023-05-07T04:00:02;4.97;;;4.47;;
19291;SDS011;9779;51.756;7.450;2023-05-07T04:02:29;5.30;;;4.90;;
19291;SDS011;9779;51.756;7.450;2023-05-07T04:04:55;4.73;;;4.33;;
19291;SDS011;9779;51.756;7.450;2023-05-07T04:07:21;5.40;;;5.10;;
19291;SDS011;9779;51.756;7.450;2023-05-07T04:09:46;5.03;;;4.73;;
19291;SDS011;9779;51.756;7.450;2023-05-07T04:12:12;6.57;;;6.00;;
19291;SDS011;9779;51.756;7.450;2023-05-07T04:14:37;5.23;;;4.93;;
19291;SDS011;9779;51.756;7.450;2023-05-07T04:17:03;5.40;;;4.90;;
19291;SDS011;9779;51.756;7.450;2023-05-07T04:19:28;6.10;;;5.70;;
19291;SDS011;9779;51.756;7.450;2023-05-07T04:21:54;6.33;;;5.93;;
19291;SDS011;9779;51.756;7.450;2023-05-07T04:24:20;6.03;;;5.63;;
19291;SDS011;9779;51.756;7.450;2023-05-07T04:26:45;9.43;;;5.70;;
19291;SDS011;9779;51.756;7.450;2023-05-07T04:29:11;7.93;;;6.00;;
19291;SDS011;9779;51.756;7.450;2023-05-07T04:31:36;8.33;;;6.10;;
19291;SDS011;9779;51.756;7.450;2023-05-07T04:34:02;10.57;;;6.13;;
19291;SDS011;9779;51.756;7.450;2023-05-07T04:36:28;8.07;;;6.27;;
19291;SDS011;9779;51.756;7.450;2023-05-07T04:38:54;6.03;;;5.40;;
19291;SDS011;9779;51.756;7.450;2023-05-07T04:41:19;7.23;;;6.73;;
19291;SDS011;9779;51.756;7.450;2023-05-07T04:43:45;6.53;;;6.10;;
19291;SDS011;9779;51.756;7.450;2023-05-07T04:46:11;6.67;;;6.27;;
19291;SDS011;9779;51.756;7.450;2023-05-07T04:48:36;7.30;;;6.60;;
19291;SDS011;9779;51.756;7.450;2023-05-07T04:51:02;12.43;;;7.17;;
19291;SDS011;9779;51.756;7.450;2023-05-07T04:53:28;7.50;;;7.00;;
19291;SDS011;9779;51.756;7.450;2023-05-07T04:55:56;7.30;;;6.80;;
19291;SDS011;9779;51.756;7.450;2023-05-07T04:58:22;8.27;;;7.17;;
19291;SDS011;9779;51.756;7.450;2023-05-07T05:00:48;7.50;;;7.10;;
19291;SDS011;9779;51.756;7.450;2023-05-07T05:03:14;8.27;;;7.60;;
19291;SDS011;9779;51.756;7.450;2023-05-07T05:05:40;9.40;;;8.70;;
19291;SDS011;9779;51.756;7.450;2023-05-07T05:08:05;8.63;;;7.80;;
19291;SDS011;9779;51.756;7.450;2023-05-07T05:10:31;9.97;;;7.67;;
19291;SDS011;9779;51.756;7.450;2023-05-07T05:12:56;8.40;;;7.80;;
19291;SDS011;9779;51.756;7.450;2023-05-07T05:15:22;8.80;;;8.30;;
19291;SDS011;9779;51.756;7.450;2023-05-07T05:17:48;8.63;;;7.93;;
19291;SDS011;9779;51.756;7.450;2023-05-07T05:20:13;8.60;;;8.00;;
19291;SDS011;9779;51.756;7.450;2023-05-07T05:22:39;10.00;;;9.20;;
19291;SDS011;9779;51.756;7.450;2023-05-07T05:25:06;9.57;;;8.97;;
19291;SDS011;9779;51.756;7.450;2023-05-07T05:27:32;10.13;;;9.43;;
19291;SDS011;9779;51.756;7.450;2023-05-07T05:29:57;11.77;;;9.73;;
19291;SDS011;9779;51.756;7.450;2023-05-07T05:32:23;11.13;;;10.03;;
19291;SDS011;9779;51.756;7.450;2023-05-07T05:34:49;10.90;;;10.03;;
19291;SDS011;9779;51.756;7.450;2023-05-07T05:37:14;10.70;;;9.67;;
19291;SDS011;9779;51.756;7.450;2023-05-07T05:39:40;10.30;;;9.60;;
19291;SDS011;9779;51.756;7.450;2023-05-07T05:42:06;12.23;;;11.27;;
19291;SDS011;9779;51.756;7.450;2023-05-07T05:44:31;12.07;;;10.97;;
19291;SDS011;9779;51.756;7.450;2023-05-07T05:46:57;12.00;;;11.07;;
19291;SDS011;9779;51.756;7.450;2023-05-07T05:49:24;12.77;;;11.57;;
19291;SDS011;9779;51.756;7.450;2023-05-07T05:51:50;12.03;;;10.93;;
19291;SDS011;9779;51.756;7.450;2023-05-07T05:54:15;12.07;;;11.03;;
19291;SDS011;9779;51.756;7.450;2023-05-07T05:56:41;16.63;;;11.93;;
19291;SDS011;9779;51.756;7.450;2023-05-07T05:59:07;13.93;;;12.23;;
19291;SDS011;9779;51.756;7.450;2023-05-07T06:01:32;12.53;;;11.63;;
19291;SDS011;9779;51.756;7.450;2023-05-07T06:03:58;11.60;;;10.63;;
19291;SDS011;9779;51.756;7.450;2023-05-07T06:06:23;15.60;;;10.87;;
19291;SDS011;9779;51.756;7.450;2023-05-07T06:08:49;14.00;;;12.57;;
19291;SDS011;9779;51.756;7.450;2023-05-07T06:11:15;15.30;;;12.03;;
19291;SDS011;9779;51.756;7.450;2023-05-07T06:13:40;16.23;;;12.83;;
19291;SDS011;9779;51.756;7.450;2023-05-07T06:16:06;14.30;;;13.13;;
19291;SDS011;9779;51.756;7.450;2023-05-07T06:18:31;13.23;;;12.23;;
19291;SDS011;9779;51.756;7.450;2023-05-07T06:20:57;15.37;;;13.67;;
19291;SDS011;9779;51.756;7.450;2023-05-07T06:23:23;14.73;;;13.23;;
19291;SDS011;9779;51.756;7.450;2023-05-07T06:25:49;14.50;;;13.27;;
19291;SDS011;9779;51.756;7.450;2023-05-07T06:28:15;14.93;;;12.07;;
19291;SDS011;9779;51.756;7.450;2023-05-07T06:30:41;14.93;;;13.47;;
19291;SDS011;9779;51.756;7.450;2023-05-07T06:33:06;13.77;;;12.57;;
19291;SDS011;9779;51.756;7.450;2023-05-07T06:35:32;13.07;;;12.00;;
19291;SDS011;9779;51.756;7.450;2023-05-07T06:37:57;13.80;;;12.70;;
19291;SDS011;9779;51.756;7.450;2023-05-07T06:40:23;14.60;;;13.40;;
19291;SDS011;9779;51.756;7.450;2023-05-07T06:42:48;16.23;;;13.03;;
19291;SDS011;9779;51.756;7.450;2023-05-07T06:45:14;15.00;;;13.60;;
19291;SDS011;9779;51.756;7.450;2023-05-07T06:47:39;18.30;;;13.10;;
19291;SDS011;9779;51.756;7.450;2023-05-07T06:50:05;14.53;;;13.27;;
19291;SDS011;9779;51.756;7.450;2023-05-07T06:52:31;15.27;;;13.80;;
19291;SDS011;9779;51.756;7.450;2023-05-07T06:54:57;15.37;;;13.87;;
19291;SDS011;9779;51.756;7.450;2023-05-07T06:57:23;15.03;;;13.57;;
19291;SDS011;9779;51.756;7.450;2023-05-07T06:59:49;15.13;;;13.13;;
19291;SDS011;9779;51.756;7.450;2023-05-07T07:02:14;15.93;;;14.57;;
19291;SDS011;9779;51.756;7.450;2023-05-07T07:04:40;13.47;;;12.17;;
19291;SDS011;9779;51.756;7.450;2023-05-07T07:07:06;15.43;;;14.17;;
19291;SDS011;9779;51.756;7.450;2023-05-07T07:09:32;14.87;;;13.67;;
19291;SDS011;9779;51.756;7.450;2023-05-07T07:11:58;15.40;;;13.90;;
19291;SDS011;9779;51.756;7.450;2023-05-07T07:14:23;14.40;;;13.07;;
19291;SDS011;9779;51.756;7.450;2023-05-07T07:16:49;15.57;;;14.20;;
19291;SDS011;9779;51.756;7.450;2023-05-07T07:19:14;15.07;;;13.90;;
19291;SDS011;9779;51.756;7.450;2023-05-07T07:21:41;18.43;;;13.13;;
19291;SDS011;9779;51.756;7.450;2023-05-07T07:24:06;15.60;;;14.33;;
19291;SDS011;9779;51.756;7.450;2023-05-07T07:26:32;16.10;;;14.50;;
19291;SDS011;9779;51.756;7.450;2023-05-07T07:28:58;20.43;;;14.73;;
19291;SDS011;9779;51.756;7.450;2023-05-07T07:31:23;16.60;;;14.77;;
19291;SDS011;9779;51.756;7.450;2023-05-07T07:33:49;15.53;;;14.13;;
19291;SDS011;9779;51.756;7.450;2023-05-07T07:36:15;15.63;;;14.17;;
19291;SDS011;9779;51.756;7.450;2023-05-07T07:38:41;15.37;;;13.80;;
19291;SDS011;9779;51.756;7.450;2023-05-07T07:41:07;18.13;;;14.97;;
19291;SDS011;9779;51.756;7.450;2023-05-07T07:43:34;16.23;;;14.73;;
19291;SDS011;9779;51.756;7.450;2023-05-07T07:46:00;16.53;;;14.87;;
19291;SDS011;9779;51.756;7.450;2023-05-07T07:48:26;16.13;;;14.43;;
19291;SDS011;9779;51.756;7.450;2023-05-07T07:50:51;15.90;;;14.50;;
19291;SDS011;9779;51.756;7.450;2023-05-07T07:53:17;13.90;;;12.80;;
19291;SDS011;9779;51.756;7.450;2023-05-07T07:55:43;17.13;;;15.43;;
19291;SDS011;9779;51.756;7.450;2023-05-07T07:58:09;16.50;;;15.00;;
19291;SDS011;9779;51.756;7.450;2023-05-07T08:00:34;16.37;;;14.87;;
19291;SDS011;9779;51.756;7.450;2023-05-07T08:03:00;16.00;;;14.53;;
19291;SDS011;9779;51.756;7.450;2023-05-07T08:05:28;16.73;;;15.20;;
19291;SDS011;9779;51.756;7.450;2023-05-07T08:07:54;18.20;;;15.67;;
19291;SDS011;9779;51.756;7.450;2023-05-07T08:10:20;16.37;;;14.77;;
19291;SDS011;9779;51.756;7.450;2023-05-07T08:12:47;19.60;;;15.40;;
19291;SDS011;9779;51.756;7.450;2023-05-07T08:15:13;18.40;;;15.67;;
19291;SDS011;9779;51.756;7.450;2023-05-07T08:17:39;17.33;;;14.67;;
19291;SDS011;9779;51.756;7.450;2023-05-07T08:20:05;24.80;;;15.57;;
19291;SDS011;9779;51.756;7.450;2023-05-07T08:22:31;18.67;;;15.17;;
19291;SDS011;9779;51.756;7.450;2023-05-07T08:24:57;16.83;;;14.70;;
19291;SDS011;9779;51.756;7.450;2023-05-07T08:27:22;17.90;;;14.93;;
19291;SDS011;9779;51.756;7.450;2023-05-07T08:29:48;17.17;;;15.43;;
19291;SDS011;9779;51.756;7.450;2023-05-07T08:32:14;16.83;;;15.27;;
19291;SDS011;9779;51.756;7.450;2023-05-07T08:34:40;15.90;;;14.70;;
19291;SDS011;9779;51.756;7.450;2023-05-07T08:37:06;16.43;;;14.80;;
19291;SDS011;9779;51.756;7.450;2023-05-07T08:39:31;15.40;;;14.00;;
19291;SDS011;9779;51.756;7.450;2023-05-07T08:41:57;15.97;;;14.63;;
19291;SDS011;9779;51.756;7.450;2023-05-07T08:44:27;25.43;;;15.17;;
19291;SDS011;9779;51.756;7.450;2023-05-07T08:46:57;16.40;;;14.73;;
19291;SDS011;9779;51.756;7.450;2023-05-07T08:49:24;16.57;;;14.97;;
19291;SDS011;9779;51.756;7.450;2023-05-07T08:51:50;16.80;;;15.23;;
19291;SDS011;9779;51.756;7.450;2023-05-07T08:54:16;16.83;;;14.83;;
19291;SDS011;9779;51.756;7.450;2023-05-07T08:56:42;16.87;;;15.37;;
19291;SDS011;9779;51.756;7.450;2023-05-07T08:59:08;17.77;;;15.37;;
19291;SDS011;9779;51.756;7.450;2023-05-07T09:01:34;16.27;;;14.70;;
19291;SDS011;9779;51.756;7.450;2023-05-07T09:04:00;16.70;;;15.07;;
19291;SDS011;9779;51.756;7.450;2023-05-07T09:06:26;13.93;;;12.73;;
19291;SDS011;9779;51.756;7.450;2023-05-07T09:08:52;15.27;;;13.87;;
19291;SDS011;9779;51.756;7.450;2023-05-07T09:11:24;17.93;;;14.90;;
19291;SDS011;9779;51.756;7.450;2023-05-07T09:13:53;19.10;;;15.17;;
19291;SDS011;9779;51.756;7.450;2023-05-07T09:16:21;17.00;;;14.23;;
19291;SDS011;9779;51.756;7.450;2023-05-07T09:18:48;19.43;;;14.63;;
19291;SDS011;9779;51.756;7.450;2023-05-07T09:21:17;16.40;;;14.90;;
19291;SDS011;9779;51.756;7.450;2023-05-07T09:23:44;16.00;;;14.63;;
19291;SDS011;9779;51.756;7.450;2023-05-07T09:26:09;15.27;;;13.37;;
19291;SDS011;9779;51.756;7.450;2023-05-07T09:28:40;16.73;;;14.83;;
19291;SDS011;9779;51.756;7.450;2023-05-07T09:31:09;16.93;;;15.33;;
19291;SDS011;9779;51.756;7.450;2023-05-07T09:33:35;15.30;;;13.70;;
19291;SDS011;9779;51.756;7.450;2023-05-07T09:36:02;15.93;;;14.30;;
19291;SDS011;9779;51.756;7.450;2023-05-07T09:38:32;15.77;;;14.20;;
19291;SDS011;9779;51.756;7.450;2023-05-07T09:41:08;15.20;;;13.93;;
19291;SDS011;9779;51.756;7.450;2023-05-07T09:43:36;14.73;;;13.30;;
19291;SDS011;9779;51.756;7.450;2023-05-07T09:46:05;14.37;;;11.67;;
19291;SDS011;9779;51.756;7.450;2023-05-07T09:48:35;15.17;;;13.67;;
19291;SDS011;9779;51.756;7.450;2023-05-07T09:51:03;12.70;;;11.57;;
19291;SDS011;9779;51.756;7.450;2023-05-07T09:53:36;14.23;;;12.40;;
19291;SDS011;9779;51.756;7.450;2023-05-07T09:56:05;12.83;;;11.57;;
19291;SDS011;9779;51.756;7.450;2023-05-07T09:58:30;14.07;;;11.80;;
19291;SDS011;9779;51.756;7.450;2023-05-07T10:00:58;14.63;;;13.33;;
19291;SDS011;9779;51.756;7.450;2023-05-07T10:03:25;14.80;;;13.30;;
19291;SDS011;9779;51.756;7.450;2023-05-07T10:05:54;14.23;;;12.77;;
19291;SDS011;9779;51.756;7.450;2023-05-07T10:08:19;13.10;;;11.90;;
19291;SDS011;9779;51.756;7.450;2023-05-07T10:10:45;14.43;;;13.27;;
19291;SDS011;9779;51.756;7.450;2023-05-07T10:13:11;16.00;;;12.50;;
19291;SDS011;9779;51.756;7.450;2023-05-07T10:15:37;16.47;;;11.50;;
19291;SDS011;9779;51.756;7.450;2023-05-07T10:18:04;13.00;;;11.87;;
19291;SDS011;9779;51.756;7.450;2023-05-07T10:20:31;13.37;;;12.07;;
19291;SDS011;9779;51.756;7.450;2023-05-07T10:22:58;12.30;;;11.00;;
19291;SDS011;9779;51.756;7.450;2023-05-07T10:25:28;13.80;;;12.60;;
19291;SDS011;9779;51.756;7.450;2023-05-07T10:27:55;12.77;;;11.70;;
19291;SDS011;9779;51.756;7.450;2023-05-07T10:30:38;11.37;;;10.47;;
19291;SDS011;9779;51.756;7.450;2023-05-07T10:33:05;12.50;;;11.40;;
19291;SDS011;9779;51.756;7.450;2023-05-07T10:35:39;12.30;;;11.07;;
19291;SDS011;9779;51.756;7.450;2023-05-07T10:38:07;11.17;;;10.37;;
19291;SDS011;9779;51.756;7.450;2023-05-07T10:40:33;12.17;;;11.17;;
19291;SDS011;9779;51.756;7.450;2023-05-07T10:43:00;13.33;;;12.27;;
19291;SDS011;9779;51.756;7.450;2023-05-07T10:45:29;13.73;;;12.73;;
19291;SDS011;9779;51.756;7.450;2023-05-07T10:50:33;12.77;;;11.73;;
19291;SDS011;9779;51.756;7.450;2023-05-07T10:55:47;22.50;;;12.55;;
19291;SDS011;9779;51.756;7.450;2023-05-07T10:58:26;12.57;;;11.47;;
19291;SDS011;9779;51.756;7.450;2023-05-07T11:00:59;12.17;;;11.17;;
19291;SDS011;9779;51.756;7.450;2023-05-07T11:03:26;13.17;;;12.13;;
19291;SDS011;9779;51.756;7.450;2023-05-07T11:06:12;13.97;;;10.30;;
19291;SDS011;9779;51.756;7.450;2023-05-07T11:08:57;11.53;;;10.70;;
19291;SDS011;9779;51.756;7.450;2023-05-07T11:14:11;11.65;;;10.82;;
19291;SDS011;9779;51.756;7.450;2023-05-07T11:16:37;11.23;;;9.98;;
19291;SDS011;9779;51.756;7.450;2023-05-07T11:19:05;10.90;;;10.15;;
19291;SDS011;9779;51.756;7.450;2023-05-07T11:24:06;10.67;;;9.63;;
19291;SDS011;9779;51.756;7.450;2023-05-07T11:29:12;9.43;;;8.82;;
19291;SDS011;9779;51.756;7.450;2023-05-07T11:31:48;8.90;;;8.35;;
19291;SDS011;9779;51.756;7.450;2023-05-07T11:34:16;9.10;;;8.30;;
19291;SDS011;9779;51.756;7.450;2023-05-07T11:36:46;8.43;;;7.63;;
19291;SDS011;9779;51.756;7.450;2023-05-07T11:39:26;9.57;;;8.63;;
19291;SDS011;9779;51.756;7.450;2023-05-07T11:41:53;8.97;;;8.37;;
19291;SDS011;9779;51.756;7.450;2023-05-07T11:44:18;8.88;;;8.25;;
19291;SDS011;9779;51.756;7.450;2023-05-07T11:46:44;11.63;;;7.82;;
19291;SDS011;9779;51.756;7.450;2023-05-07T11:49:10;9.82;;;9.13;;
19291;SDS011;9779;51.756;7.450;2023-05-07T11:51:35;9.07;;;8.15;;
19291;SDS011;9779;51.756;7.450;2023-05-07T11:54:03;8.20;;;7.70;;
19291;SDS011;9779;51.756;7.450;2023-05-07T11:56:33;7.50;;;7.00;;
19291;SDS011;9779;51.756;7.450;2023-05-07T11:59:00;7.13;;;6.70;;
19291;SDS011;9779;51.756;7.450;2023-05-07T12:01:25;6.35;;;5.90;;
19291;SDS011;9779;51.756;7.450;2023-05-07T12:03:51;7.65;;;7.15;;
19291;SDS011;9779;51.756;7.450;2023-05-07T12:06:16;8.75;;;7.85;;
19291;SDS011;9779;51.756;7.450;2023-05-07T12:08:43;7.22;;;6.72;;
19291;SDS011;9779;51.756;7.450;2023-05-07T12:11:13;6.65;;;6.05;;
19291;SDS011;9779;51.756;7.450;2023-05-07T12:13:42;6.38;;;5.97;;
19291;SDS011;9779;51.756;7.450;2023-05-07T12:16:08;10.63;;;6.90;;
19291;SDS011;9779;51.756;7.450;2023-05-07T12:18:34;6.82;;;6.43;;
19291;SDS011;9779;51.756;7.450;2023-05-07T12:21:01;6.22;;;5.63;;
19291;SDS011;9779;51.756;7.450;2023-05-07T12:23:27;5.50;;;4.97;;
19291;SDS011;9779;51.756;7.450;2023-05-07T12:25:54;6.28;;;5.88;;
19291;SDS011;9779;51.756;7.450;2023-05-07T12:28:19;5.88;;;5.47;;
19291;SDS011;9779;51.756;7.450;2023-05-07T12:30:45;5.45;;;4.68;;
19291;SDS011;9779;51.756;7.450;2023-05-07T12:33:15;6.22;;;5.68;;
19291;SDS011;9779;51.756;7.450;2023-05-07T12:35:48;5.93;;;5.53;;
19291;SDS011;9779;51.756;7.450;2023-05-07T12:38:17;4.97;;;4.68;;
19291;SDS011;9779;51.756;7.450;2023-05-07T12:40:55;5.65;;;5.25;;
19291;SDS011;9779;51.756;7.450;2023-05-07T12:43:21;5.53;;;5.13;;
19291;SDS011;9779;51.756;7.450;2023-05-07T12:45:52;5.78;;;5.28;;
19291;SDS011;9779;51.756;7.450;2023-05-07T12:48:20;5.68;;;5.30;;
19291;SDS011;9779;51.756;7.450;2023-05-07T12:50:49;6.68;;;5.00;;
19291;SDS011;9779;51.756;7.450;2023-05-07T12:53:16;5.63;;;5.22;;
19291;SDS011;9779;51.756;7.450;2023-05-07T12:55:42;4.68;;;4.38;;
19291;SDS011;9779;51.756;7.450;2023-05-07T12:58:14;6.00;;;5.60;;
19291;SDS011;9779;51.756;7.450;2023-05-07T13:00:44;11.05;;;5.95;;
19291;SDS011;9779;51.756;7.450;2023-05-07T13:03:12;5.40;;;5.10;;
19291;SDS011;9779;51.756;7.450;2023-05-07T13:05:46;7.35;;;5.70;;
19291;SDS011;9779;51.756;7.450;2023-05-07T13:08:12;6.53;;;5.72;;
19291;SDS011;9779;51.756;7.450;2023-05-07T13:10:47;9.02;;;5.65;;
19291;SDS011;9779;51.756;7.450;2023-05-07T13:13:13;5.55;;;5.18;;
19291;SDS011;9779;51.756;7.450;2023-05-07T13:15:38;5.38;;;5.07;;
19291;SDS011;9779;51.756;7.450;2023-05-07T13:18:04;5.35;;;5.00;;
19291;SDS011;9779;51.756;7.450;2023-05-07T13:20:29;4.68;;;4.28;;
19291;SDS011;9779;51.756;7.450;2023-05-07T13:22:55;5.53;;;5.10;;
19291;SDS011;9779;51.756;7.450;2023-05-07T13:25:20;6.35;;;5.13;;
19291;SDS011;9779;51.756;7.450;2023-05-07T13:27:46;7.57;;;5.22;;
19291;SDS011;9779;51.756;7.450;2023-05-07T13:30:12;6.90;;;4.82;;
19291;SDS011;9779;51.756;7.450;2023-05-07T13:32:37;4.75;;;4.43;;
19291;SDS011;9779;51.756;7.450;2023-05-07T13:35:03;4.65;;;4.25;;
19291;SDS011;9779;51.756;7.450;2023-05-07T13:37:29;4.25;;;4.03;;
19291;SDS011;9779;51.756;7.450;2023-05-07T13:39:55;4.32;;;4.05;;
19291;SDS011;9779;51.756;7.450;2023-05-07T13:42:20;4.50;;;4.20;;
19291;SDS011;9779;51.756;7.450;2023-05-07T13:44:46;4.05;;;3.65;;
19291;SDS011;9779;51.756;7.450;2023-05-07T13:47:11;5.05;;;4.75;;
19291;SDS011;9779;51.756;7.450;2023-05-07T13:49:37;4.65;;;4.28;;
19291;SDS011;9779;51.756;7.450;2023-05-07T13:52:03;6.40;;;5.03;;
19291;SDS011;9779;51.756;7.450;2023-05-07T13:54:28;5.80;;;5.30;;
19291;SDS011;9779;51.756;7.450;2023-05-07T13:56:54;6.88;;;5.45;;
19291;SDS011;9779;51.756;7.450;2023-05-07T13:59:19;6.25;;;4.90;;
19291;SDS011;9779;51.756;7.450;2023-05-07T14:01:45;5.40;;;5.10;;
19291;SDS011;9779;51.756;7.450;2023-05-07T14:04:11;5.72;;;5.15;;
19291;SDS011;9779;51.756;7.450;2023-05-07T14:06:36;8.55;;;4.82;;
19291;SDS011;9779;51.756;7.450;2023-05-07T14:09:02;4.70;;;4.40;;
19291;SDS011;9779;51.756;7.450;2023-05-07T14:11:27;5.00;;;4.70;;
19291;SDS011;9779;51.756;7.450;2023-05-07T14:13:53;5.13;;;4.82;;
19291;SDS011;9779;51.756;7.450;2023-05-07T14:16:18;5.63;;;5.20;;
19291;SDS011;9779;51.756;7.450;2023-05-07T14:18:44;5.05;;;4.63;;
19291;SDS011;9779;51.756;7.450;2023-05-07T14:21:10;5.55;;;5.15;;
19291;SDS011;9779;51.756;7.450;2023-05-07T14:23:35;11.60;;;5.72;;
19291;SDS011;9779;51.756;7.450;2023-05-07T14:26:01;8.05;;;5.95;;
19291;SDS011;9779;51.756;7.450;2023-05-07T14:28:26;5.37;;;5.07;;
19291;SDS011;9779;51.756;7.450;2023-05-07T14:30:52;6.80;;;6.40;;
19291;SDS011;9779;51.756;7.450;2023-05-07T14:33:17;7.10;;;6.50;;
19291;SDS011;9779;51.756;7.450;2023-05-07T14:35:43;6.00;;;5.60;;
19291;SDS011;9779;51.756;7.450;2023-05-07T14:38:13;8.07;;;6.33;;
19291;SDS011;9779;51.756;7.450;2023-05-07T14:40:39;6.20;;;5.80;;
19291;SDS011;9779;51.756;7.450;2023-05-07T14:43:04;7.97;;;5.78;;
19291;SDS011;9779;51.756;7.450;2023-05-07T14:45:30;6.00;;;5.57;;
19291;SDS011;9779;51.756;7.450;2023-05-07T14:47:55;6.30;;;5.82;;
19291;SDS011;9779;51.756;7.450;2023-05-07T14:50:21;6.40;;;5.80;;
19291;SDS011;9779;51.756;7.450;2023-05-07T14:52:46;7.07;;;6.47;;
19291;SDS011;9779;51.756;7.450;2023-05-07T14:55:12;5.82;;;5.43;;
19291;SDS011;9779;51.756;7.450;2023-05-07T14:57:37;6.28;;;5.88;;
19291;SDS011;9779;51.756;7.450;2023-05-07T15:00:03;6.82;;;6.32;;
19291;SDS011;9779;51.756;7.450;2023-05-07T15:02:29;15.52;;;6.50;;